Time;durP1;ratioP1;P1;durP2;ratioP2;P2;SDS_P1;SDS_P2;PMS_P1;PMS_P2;Temp;Humidity;BMP_temperature;BMP_pressure;BME280_temperature;BME280_humidity;BME280_pressure;Samples;Min_cycle;Max_cycle;Signal;HPM_P1;HPM_P2
2023/06/04 00:01:22;;;;;;;0.50;0.50;;;9.70;99.90;;;;;;4972944;28;20201;-69
2023/06/04 00:03:48;;;;;;;0.57;0.57;;;9.60;99.90;;;;;;4955839;28;20228;-69
2023/06/04 00:06:14;;;;;;;0.60;0.60;;;9.60;99.90;;;;;;4973474;28;20200;-69
2023/06/04 00:08:39;;;;;;;0.38;0.38;;;9.50;99.90;;;;;;4973103;28;20559;-68
2023/06/04 00:11:05;;;;;;;1.02;0.98;;;9.50;99.90;;;;;;4973217;28;20779;-68
2023/06/04 00:13:31;;;;;;;0.57;0.57;;;9.50;99.90;;;;;;4972738;28;20207;-69
2023/06/04 00:15:57;;;;;;;0.40;0.40;;;9.40;99.90;;;;;;4973313;28;20610;-69
2023/06/04 00:18:22;;;;;;;0.52;0.52;;;9.40;99.90;;;;;;4972895;28;20196;-69
2023/06/04 00:20:48;;;;;;;0.47;0.47;;;9.40;99.90;;;;;;4972918;28;20275;-69
2023/06/04 00:23:14;;;;;;;0.50;0.50;;;9.30;99.90;;;;;;4972893;28;20235;-68
2023/06/04 00:25:39;;;;;;;0.57;0.57;;;9.20;99.90;;;;;;4972925;28;20199;-69
2023/06/04 00:28:05;;;;;;;0.70;0.70;;;9.20;99.90;;;;;;4955425;28;20277;-69
2023/06/04 00:30:31;;;;;;;0.80;0.80;;;9.10;99.90;;;;;;4972587;28;20651;-69
2023/06/04 00:32:57;;;;;;;0.80;0.80;;;9.00;99.90;;;;;;4973131;28;20611;-69
2023/06/04 00:35:22;;;;;;;0.60;0.60;;;8.90;99.90;;;;;;4955615;28;20203;-68
2023/06/04 00:37:48;;;;;;;0.60;0.60;;;8.90;99.90;;;;;;4973260;28;20205;-69
2023/06/04 00:40:14;;;;;;;0.60;0.60;;;8.80;99.90;;;;;;4972904;28;20220;-68
2023/06/04 00:42:40;;;;;;;0.52;0.52;;;8.80;99.90;;;;;;4972580;28;20196;-69
2023/06/04 00:45:07;;;;;;;0.60;0.60;;;8.80;99.90;;;;;;4973014;28;20199;-69
2023/06/04 00:47:33;;;;;;;0.60;0.60;;;8.70;99.90;;;;;;4974729;28;20542;-69
2023/06/04 00:49:59;;;;;;;0.52;0.52;;;8.70;99.90;;;;;;4979125;28;20242;-69
2023/06/04 00:52:26;;;;;;;0.60;0.60;;;8.70;99.90;;;;;;4992432;28;20543;-70
2023/06/04 00:54:54;;;;;;;0.70;0.70;;;8.70;99.90;;;;;;4994558;28;20211;-70
2023/06/04 00:57:21;;;;;;;0.60;0.60;;;8.70;99.90;;;;;;4977726;28;20211;-69
2023/06/04 00:59:47;;;;;;;0.70;0.70;;;8.70;99.90;;;;;;4979311;28;20523;-70
2023/06/04 01:02:22;;;;;;;0.68;0.68;;;8.60;99.90;;;;;;4991745;22;20238;-72
2023/06/04 01:05:00;;;;;;;0.52;0.52;;;8.60;99.90;;;;;;5012740;28;20209;-73
2023/06/04 01:07:28;;;;;;;0.60;0.60;;;8.50;99.90;;;;;;5018174;28;20205;-73
2023/06/04 01:09:54;;;;;;;0.60;0.60;;;8.50;99.90;;;;;;5018075;28;20194;-72
2023/06/04 01:12:20;;;;;;;0.60;0.60;;;8.40;99.90;;;;;;5018364;28;20222;-73
2023/06/04 01:14:46;;;;;;;0.60;0.60;;;8.30;99.90;;;;;;5000571;28;20664;-74
2023/06/04 01:17:11;;;;;;;0.77;0.77;;;8.30;99.90;;;;;;5018054;28;20201;-73
2023/06/04 01:20:04;;;;;;;0.50;0.50;;;8.20;99.90;;;;;;4987926;28;20273;-74
2023/06/04 01:22:40;;;;;;;0.98;0.98;;;8.10;99.90;;;;;;4998109;28;20654;-73
2023/06/04 01:25:32;;;;;;;0.70;0.70;;;8.10;99.90;;;;;;4998512;28;20195;-72
2023/06/04 01:27:58;;;;;;;0.60;0.60;;;8.00;99.90;;;;;;4996966;28;20199;-73
2023/06/04 01:30:34;;;;;;;0.65;0.65;;;8.00;99.90;;;;;;4998254;28;20216;-72
2023/06/04 01:33:02;;;;;;;0.80;0.80;;;7.90;99.90;;;;;;4997118;28;20211;-73
2023/06/04 01:35:31;;;;;;;0.70;0.70;;;7.80;99.90;;;;;;4997214;28;20341;-73
2023/06/04 01:37:57;;;;;;;0.63;0.63;;;7.80;99.90;;;;;;4998455;28;20195;-74
2023/06/04 01:40:24;;;;;;;0.70;0.70;;;7.70;99.90;;;;;;4997904;28;20203;-74
2023/06/04 01:42:50;;;;;;;0.60;0.60;;;7.80;99.90;;;;;;4998443;28;20199;-75
2023/06/04 01:45:16;;;;;;;0.70;0.70;;;7.90;99.90;;;;;;4998018;28;20237;-74
2023/06/04 01:47:42;;;;;;;0.60;0.60;;;8.10;99.90;;;;;;5000361;28;20700;-74
2023/06/04 01:50:09;;;;;;;0.60;0.60;;;8.40;99.90;;;;;;5000206;28;20198;-74
2023/06/04 01:52:40;;;;;;;0.60;0.60;;;8.80;99.90;;;;;;5017019;28;20286;-74
2023/06/04 01:55:08;;;;;;;1.38;1.27;;;9.00;99.90;;;;;;5018271;28;20226;-71
2023/06/04 01:57:38;;;;;;;0.60;0.60;;;9.20;99.90;;;;;;5017627;28;20225;-74
2023/06/04 02:00:09;;;;;;;0.65;0.65;;;9.40;99.90;;;;;;4997764;28;20650;-73
2023/06/04 02:02:36;;;;;;;0.57;0.57;;;9.50;99.90;;;;;;5013589;28;20265;-72
2023/06/04 02:05:08;;;;;;;0.60;0.60;;;9.50;99.90;;;;;;5014467;28;20195;-73
2023/06/04 02:07:35;;;;;;;0.50;0.50;;;9.60;99.90;;;;;;5014308;28;20697;-73
2023/06/04 02:10:01;;;;;;;0.57;0.57;;;9.60;99.90;;;;;;5014335;28;20227;-72
2023/06/04 02:12:26;;;;;;;0.60;0.60;;;9.70;99.90;;;;;;5014385;28;20225;-74
2023/06/04 02:14:52;;;;;;;0.60;0.60;;;9.80;99.90;;;;;;5014508;28;20229;-72
2023/06/04 02:17:18;;;;;;;1.13;1.02;;;9.90;99.90;;;;;;5012781;28;20198;-74
2023/06/04 02:19:45;;;;;;;0.60;0.60;;;9.80;99.90;;;;;;5013979;28;20331;-73
2023/06/04 02:22:14;;;;;;;0.60;0.60;;;9.90;99.90;;;;;;4996458;28;20249;-72
2023/06/04 02:24:47;;;;;;;1.88;0.82;;;9.90;99.90;;;;;;5013822;28;20190;-73
2023/06/04 02:27:14;;;;;;;1.92;1.58;;;9.90;99.90;;;;;;4996251;28;20199;-73
2023/06/04 02:29:40;;;;;;;0.50;0.50;;;9.90;99.90;;;;;;5013407;28;20198;-73
2023/06/04 02:32:07;;;;;;;0.50;0.50;;;9.90;99.90;;;;;;4995815;28;20199;-72
2023/06/04 02:34:36;;;;;;;0.47;0.47;;;9.90;99.90;;;;;;5013335;28;20282;-72
2023/06/04 02:37:03;;;;;;;0.60;0.60;;;9.80;99.90;;;;;;4996302;28;20199;-73
2023/06/04 02:39:29;;;;;;;0.52;0.52;;;9.80;99.90;;;;;;4995944;28;20678;-73
2023/06/04 02:41:55;;;;;;;0.70;0.70;;;9.70;99.90;;;;;;4996877;28;20273;-73
2023/06/04 02:44:21;;;;;;;0.60;0.60;;;9.60;99.90;;;;;;5013476;28;20266;-73
2023/06/04 02:46:47;;;;;;;0.60;0.60;;;9.70;99.90;;;;;;4995880;28;20194;-73
2023/06/04 02:49:13;;;;;;;0.60;0.60;;;9.80;99.90;;;;;;5013250;28;20213;-72
2023/06/04 02:51:43;;;;;;;0.60;0.60;;;9.90;99.90;;;;;;5013348;28;20202;-73
2023/06/04 02:54:09;;;;;;;0.50;0.50;;;9.90;99.90;;;;;;4996261;28;20195;-72
2023/06/04 02:56:36;;;;;;;0.60;0.60;;;10.00;99.90;;;;;;5013466;28;20202;-72
2023/06/04 02:59:02;;;;;;;0.60;0.60;;;10.00;99.90;;;;;;5013581;28;20210;-72
2023/06/04 03:01:28;;;;;;;0.50;0.50;;;10.10;99.90;;;;;;5009587;28;20235;-72
2023/06/04 03:03:54;;;;;;;0.60;0.60;;;10.00;99.90;;;;;;5009650;28;20340;-73
2023/06/04 03:06:22;;;;;;;0.50;0.50;;;10.10;99.90;;;;;;5013429;28;20217;-73
2023/06/04 03:08:51;;;;;;;0.60;0.60;;;10.20;99.90;;;;;;5013437;28;20219;-73
2023/06/04 03:11:20;;;;;;;0.50;0.50;;;10.20;99.90;;;;;;5012776;28;20183;-74
2023/06/04 03:13:46;;;;;;;0.60;0.60;;;10.20;99.90;;;;;;5013435;28;20530;-73
2023/06/04 03:16:12;;;;;;;0.50;0.50;;;10.30;99.90;;;;;;5013139;28;20274;-74
2023/06/04 03:18:44;;;;;;;0.60;0.60;;;10.30;99.90;;;;;;4994636;28;20302;-73
2023/06/04 03:21:11;;;;;;;0.50;0.50;;;10.30;99.90;;;;;;4995310;28;20665;-74
2023/06/04 03:23:37;;;;;;;0.60;0.60;;;10.30;99.90;;;;;;5012846;28;20776;-72
2023/06/04 03:26:06;;;;;;;0.60;0.60;;;10.40;99.90;;;;;;4995641;28;20294;-72
2023/06/04 03:28:32;;;;;;;0.52;0.52;;;10.50;99.90;;;;;;5013278;28;20203;-72
2023/06/04 03:30:58;;;;;;;0.73;0.73;;;10.50;99.90;;;;;;4995598;28;20206;-73
2023/06/04 03:33:24;;;;;;;0.50;0.50;;;10.60;99.90;;;;;;5013163;28;20199;-73
2023/06/04 03:35:53;;;;;;;0.50;0.50;;;10.60;99.90;;;;;;5013511;28;20230;-73
2023/06/04 03:38:19;;;;;;;0.45;0.45;;;10.60;99.90;;;;;;5012644;28;20281;-72
2023/06/04 03:40:46;;;;;;;0.52;0.52;;;10.60;99.90;;;;;;4994670;28;20294;-73
2023/06/04 03:43:11;;;;;;;0.57;0.57;;;10.70;99.90;;;;;;5011543;28;20198;-73
2023/06/04 03:45:41;;;;;;;0.50;0.50;;;10.70;99.90;;;;;;4991217;28;20199;-73
2023/06/04 03:48:07;;;;;;;0.52;0.52;;;10.70;99.90;;;;;;4991352;28;20246;-71
2023/06/04 03:50:32;;;;;;;0.50;0.50;;;10.70;99.90;;;;;;4992539;28;20191;-73
2023/06/04 03:52:58;;;;;;;0.50;0.50;;;10.70;99.90;;;;;;4992712;28;20199;-72
2023/06/04 03:55:24;;;;;;;0.50;0.50;;;10.70;99.90;;;;;;4992556;28;20195;-73
2023/06/04 03:57:50;;;;;;;0.60;0.60;;;10.70;99.90;;;;;;4992639;28;20234;-72
2023/06/04 04:00:15;;;;;;;0.50;0.50;;;10.70;99.90;;;;;;5009060;28;20273;-72
2023/06/04 04:02:42;;;;;;;0.50;0.50;;;10.80;99.90;;;;;;5011786;28;20697;-71
2023/06/04 04:05:09;;;;;;;0.52;0.52;;;10.90;99.90;;;;;;5012362;28;20607;-72
2023/06/04 04:07:36;;;;;;;0.50;0.50;;;10.90;99.90;;;;;;5012333;28;20231;-74
2023/06/04 04:10:02;;;;;;;0.50;0.50;;;11.00;99.90;;;;;;5012086;28;20233;-74
2023/06/04 04:12:27;;;;;;;0.60;0.60;;;11.00;99.90;;;;;;4994373;28;20256;-73
2023/06/04 04:14:53;;;;;;;0.50;0.50;;;11.00;99.90;;;;;;5011917;28;20199;-73
2023/06/04 04:17:22;;;;;;;0.60;0.60;;;11.00;99.90;;;;;;4994174;28;20199;-73
2023/06/04 04:19:48;;;;;;;0.55;0.55;;;11.00;99.90;;;;;;5012092;28;20693;-73
2023/06/04 04:22:17;;;;;;;0.50;0.50;;;11.10;99.90;;;;;;4997444;28;20239;-73
2023/06/04 04:24:43;;;;;;;0.57;0.57;;;11.10;99.90;;;;;;4992236;28;20202;-75
2023/06/04 04:27:13;;;;;;;0.50;0.50;;;11.10;99.90;;;;;;4992284;28;20196;-73
2023/06/04 04:29:39;;;;;;;0.47;0.47;;;11.10;99.90;;;;;;4992003;28;20250;-73
2023/06/04 04:32:11;;;;;;;0.52;0.52;;;11.20;99.90;;;;;;4990345;28;20234;-72
2023/06/04 04:34:42;;;;;;;0.75;0.70;;;11.20;99.90;;;;;;5002703;28;20318;-73
2023/06/04 04:37:09;;;;;;;0.55;0.55;;;11.30;99.90;;;;;;5011082;28;20201;-73
2023/06/04 04:39:38;;;;;;;0.50;0.50;;;11.40;99.90;;;;;;4993384;28;20646;-72
2023/06/04 04:42:04;;;;;;;0.40;0.40;;;11.40;99.90;;;;;;5011244;28;20619;-72
2023/06/04 04:44:30;;;;;;;0.40;0.40;;;11.40;99.90;;;;;;4993679;28;20202;-72
2023/06/04 04:46:56;;;;;;;0.40;0.40;;;11.40;99.90;;;;;;5011602;28;20294;-73
2023/06/04 04:49:22;;;;;;;0.50;0.50;;;11.40;99.90;;;;;;4993625;28;20203;-74
2023/06/04 04:51:48;;;;;;;0.40;0.40;;;11.50;99.90;;;;;;5011751;28;20195;-73
2023/06/04 04:54:14;;;;;;;0.60;0.60;;;11.50;99.90;;;;;;5011773;28;20194;-73
2023/06/04 04:56:40;;;;;;;0.50;0.50;;;11.50;99.90;;;;;;5011765;28;20195;-74
2023/06/04 04:59:06;;;;;;;0.40;0.40;;;11.50;99.90;;;;;;4993890;28;20210;-73
2023/06/04 05:01:31;;;;;;;0.40;0.40;;;11.60;99.90;;;;;;5011238;28;20198;-72
2023/06/04 05:03:57;;;;;;;0.50;0.50;;;11.70;99.90;;;;;;5011146;28;20314;-73
2023/06/04 05:06:23;;;;;;;0.50;0.50;;;11.70;99.90;;;;;;5010297;28;20622;-71
2023/06/04 05:08:52;;;;;;;0.70;0.70;;;11.80;99.90;;;;;;5011582;28;20226;-72
2023/06/04 05:11:17;;;;;;;0.40;0.40;;;11.90;99.90;;;;;;5011306;28;20197;-73
2023/06/04 05:13:43;;;;;;;0.50;0.50;;;12.00;99.90;;;;;;5011430;28;20191;-74
2023/06/04 05:16:11;;;;;;;0.47;0.47;;;12.10;99.90;;;;;;5011444;28;20195;-73
2023/06/04 05:18:44;;;;;;;0.40;0.40;;;12.10;99.90;;;;;;4993152;28;20194;-73
2023/06/04 05:21:11;;;;;;;0.63;0.45;;;12.00;99.90;;;;;;5005422;28;20203;-73
2023/06/04 05:23:38;;;;;;;0.40;0.40;;;11.90;99.90;;;;;;4991629;28;20639;-73
2023/06/04 05:26:05;;;;;;;0.47;0.47;;;11.90;99.90;;;;;;4990613;28;20207;-73
2023/06/04 05:28:33;;;;;;;0.50;0.50;;;12.00;99.90;;;;;;5006592;28;20195;-73
2023/06/04 05:30:59;;;;;;;0.40;0.40;;;12.10;99.90;;;;;;4991621;28;20198;-73
2023/06/04 05:33:26;;;;;;;0.40;0.40;;;12.20;99.90;;;;;;5004435;28;20199;-73
2023/06/04 05:35:52;;;;;;;0.40;0.40;;;12.20;99.90;;;;;;4997100;28;20233;-73
2023/06/04 05:38:25;;;;;;;0.40;0.40;;;12.20;99.90;;;;;;5014650;28;20230;-73
2023/06/04 05:40:58;;;;;;;1.27;1.02;;;12.40;99.90;;;;;;5014745;28;20294;-72
2023/06/04 05:43:24;;;;;;;0.50;0.50;;;12.40;99.90;;;;;;4996833;28;20191;-73
2023/06/04 05:45:53;;;;;;;0.40;0.40;;;12.50;99.90;;;;;;5015087;28;20191;-73
2023/06/04 05:48:18;;;;;;;0.60;0.60;;;12.60;99.90;;;;;;4996545;28;20202;-72
2023/06/04 05:50:44;;;;;;;0.50;0.50;;;12.70;99.90;;;;;;5013869;28;20706;-72
2023/06/04 05:53:10;;;;;;;0.50;0.50;;;12.60;99.90;;;;;;4996451;28;20264;-72
2023/06/04 05:55:36;;;;;;;0.50;0.50;;;12.60;99.90;;;;;;5014071;28;20203;-72
2023/06/04 05:58:02;;;;;;;0.45;0.45;;;12.60;99.90;;;;;;5012975;28;20685;-72
2023/06/04 06:00:28;;;;;;;0.45;0.45;;;12.70;99.90;;;;;;5014017;28;20207;-72
2023/06/04 06:02:53;;;;;;;0.40;0.40;;;12.80;99.90;;;;;;5013992;28;20219;-72
2023/06/04 06:05:22;;;;;;;0.40;0.40;;;12.80;99.90;;;;;;5014149;28;20198;-73
2023/06/04 06:07:48;;;;;;;0.40;0.40;;;13.00;99.90;;;;;;5014102;28;20641;-71
2023/06/04 06:10:15;;;;;;;0.43;0.43;;;13.00;99.90;;;;;;5014085;28;20199;-71
2023/06/04 06:12:41;;;;;;;0.40;0.40;;;13.00;99.90;;;;;;4995954;28;20261;-71
2023/06/04 06:15:07;;;;;;;0.40;0.40;;;13.10;99.90;;;;;;5013838;28;20206;-71
2023/06/04 06:17:37;;;;;;;0.40;0.40;;;13.10;99.90;;;;;;5013684;28;20274;-72
2023/06/04 06:20:06;;;;;;;0.60;0.60;;;13.30;99.90;;;;;;5013713;28;20198;-72
2023/06/04 06:22:33;;;;;;;0.40;0.40;;;13.40;99.90;;;;;;4992313;28;20729;-72
2023/06/04 06:24:59;;;;;;;0.40;0.40;;;13.60;99.90;;;;;;4994321;28;20218;-73
2023/06/04 06:27:25;;;;;;;0.50;0.50;;;13.80;99.90;;;;;;4993886;28;20682;-72
2023/06/04 06:29:51;;;;;;;0.50;0.50;;;13.70;99.90;;;;;;5008190;28;20207;-71
2023/06/04 06:32:16;;;;;;;0.50;0.50;;;13.70;99.90;;;;;;5013454;28;20209;-72
2023/06/04 06:34:42;;;;;;;0.40;0.40;;;13.70;99.90;;;;;;5013426;28;20245;-72
2023/06/04 06:37:08;;;;;;;0.40;0.40;;;13.80;99.90;;;;;;4995916;28;20210;-72
2023/06/04 06:39:34;;;;;;;0.40;0.40;;;13.90;99.90;;;;;;4995784;28;20211;-73
2023/06/04 06:41:59;;;;;;;0.32;0.32;;;14.20;99.90;;;;;;5013482;28;20195;-72
2023/06/04 06:44:25;;;;;;;0.40;0.40;;;14.40;99.90;;;;;;5013261;28;20206;-72
2023/06/04 06:46:53;;;;;;;0.50;0.50;;;14.50;99.90;;;;;;5012840;28;20213;-73
2023/06/04 06:49:22;;;;;;;0.40;0.40;;;14.40;99.90;;;;;;5013066;28;20199;-73
2023/06/04 06:51:48;;;;;;;0.40;0.40;;;14.30;99.90;;;;;;5013406;28;20195;-73
2023/06/04 06:54:17;;;;;;;0.47;0.47;;;14.50;99.90;;;;;;5013068;28;20254;-73
2023/06/04 06:56:43;;;;;;;0.30;0.30;;;14.60;99.90;;;;;;5012715;28;20203;-73
2023/06/04 06:59:09;;;;;;;0.40;0.40;;;14.70;99.90;;;;;;5012591;28;20678;-72
2023/06/04 07:01:35;;;;;;;0.40;0.40;;;14.70;99.90;;;;;;5012437;28;20234;-72
2023/06/04 07:04:00;;;;;;;0.40;0.40;;;14.70;99.90;;;;;;5012236;28;20256;-73
2023/06/04 07:06:26;;;;;;;0.30;0.30;;;14.90;99.90;;;;;;5012287;28;20191;-72
2023/06/04 07:08:53;;;;;;;0.38;0.38;;;15.00;99.90;;;;;;5012390;28;20561;-72
2023/06/04 07:11:19;;;;;;;0.30;0.30;;;15.20;99.90;;;;;;4994891;28;20670;-73
2023/06/04 07:13:45;;;;;;;0.38;0.38;;;15.30;99.90;;;;;;4994836;28;20338;-73
2023/06/04 07:16:11;;;;;;;0.30;0.30;;;15.60;99.90;;;;;;4994739;28;20199;-73
2023/06/04 07:18:36;;;;;;;0.30;0.30;;;15.60;99.90;;;;;;5012190;28;20692;-73
2023/06/04 07:21:02;;;;;;;0.30;0.30;;;15.70;99.90;;;;;;5007857;28;20599;-72
2023/06/04 07:23:28;;;;;;;0.30;0.30;;;16.00;99.90;;;;;;5004979;28;20203;-73
2023/06/04 07:25:54;;;;;;;0.32;0.32;;;16.10;99.70;;;;;;5012081;28;20191;-73
2023/06/04 07:28:20;;;;;;;0.40;0.40;;;16.20;99.90;;;;;;5011698;28;20229;-74
2023/06/04 07:30:46;;;;;;;0.40;0.40;;;16.30;98.90;;;;;;5011863;28;20623;-73
2023/06/04 07:33:12;;;;;;;0.40;0.40;;;16.10;99.50;;;;;;5011933;28;20195;-73
2023/06/04 07:35:37;;;;;;;0.20;0.20;;;16.30;99.90;;;;;;5011766;28;20274;-73
2023/06/04 07:38:03;;;;;;;0.30;0.30;;;16.50;98.90;;;;;;4993998;28;20569;-72
2023/06/04 07:40:29;;;;;;;0.30;0.30;;;16.70;99.20;;;;;;5010331;28;20218;-72
2023/06/04 07:42:55;;;;;;;0.30;0.30;;;16.60;98.20;;;;;;5011764;28;20277;-72
2023/06/04 07:45:20;;;;;;;0.40;0.40;;;16.60;97.90;;;;;;5011374;28;20282;-73
2023/06/04 07:47:46;;;;;;;0.30;0.30;;;16.50;97.20;;;;;;4994530;28;20202;-73
2023/06/04 07:50:15;;;;;;;0.30;0.30;;;16.40;98.50;;;;;;4994250;28;20596;-73
2023/06/04 07:52:40;;;;;;;0.25;0.25;;;16.60;97.60;;;;;;5011395;28;20211;-72
2023/06/04 07:55:08;;;;;;;0.30;0.30;;;16.90;98.00;;;;;;4993942;28;20605;-73
2023/06/04 07:57:34;;;;;;;0.30;0.30;;;17.30;97.00;;;;;;4994044;28;20199;-73
2023/06/04 08:00:01;;;;;;;0.40;0.40;;;17.60;96.60;;;;;;4993918;28;20212;-72
2023/06/04 08:02:27;;;;;;;0.30;0.30;;;17.60;96.30;;;;;;5009583;28;20353;-72
2023/06/04 08:04:53;;;;;;;0.30;0.30;;;18.00;96.10;;;;;;4993999;28;20310;-71
2023/06/04 08:07:18;;;;;;;0.30;0.30;;;18.10;96.70;;;;;;5011564;28;20205;-72
2023/06/04 08:09:45;;;;;;;0.30;0.30;;;18.30;95.50;;;;;;5011186;28;20278;-72
2023/06/04 08:12:11;;;;;;;0.30;0.30;;;17.90;94.60;;;;;;4993932;28;20298;-71
2023/06/04 08:14:37;;;;;;;0.30;0.30;;;17.60;93.70;;;;;;4993336;28;20621;-71
2023/06/04 08:17:02;;;;;;;0.30;0.30;;;17.40;93.70;;;;;;5011146;28;20205;-71
2023/06/04 08:19:28;;;;;;;0.30;0.30;;;17.40;93.50;;;;;;5010630;28;20284;-71
2023/06/04 08:21:55;;;;;;;0.30;0.30;;;17.80;94.10;;;;;;4992952;28;20199;-71
2023/06/04 08:24:21;;;;;;;0.68;0.38;;;18.20;93.50;;;;;;5010604;28;20195;-72
2023/06/04 08:26:48;;;;;;;0.30;0.30;;;18.40;92.70;;;;;;5011092;28;20186;-71
2023/06/04 08:29:13;;;;;;;0.30;0.30;;;18.20;92.00;;;;;;4993031;28;20191;-71
2023/06/04 08:31:39;;;;;;;0.20;0.20;;;18.40;92.50;;;;;;4991128;28;20210;-71
2023/06/04 08:34:05;;;;;;;1.17;0.82;;;18.80;93.20;;;;;;4990270;28;20192;-71
2023/06/04 08:36:32;;;;;;;0.30;0.30;;;19.00;90.90;;;;;;4990126;28;20215;-71
2023/06/04 08:38:58;;;;;;;0.30;0.30;;;18.50;92.10;;;;;;4990024;28;20678;-71
2023/06/04 08:41:51;;;;;;;0.20;0.20;;;18.40;91.60;;;;;;4992786;28;20210;-71
2023/06/04 08:44:17;;;;;;;0.30;0.30;;;18.10;91.30;;;;;;5010957;28;20186;-72
2023/06/04 08:46:44;;;;;;;0.30;0.30;;;18.30;92.10;;;;;;5010940;28;20633;-72
2023/06/04 08:49:12;;;;;;;0.20;0.20;;;18.70;91.30;;;;;;4993076;28;20199;-71
2023/06/04 08:51:42;;;;;;;0.20;0.20;;;18.60;90.00;;;;;;5010626;28;20289;-71
2023/06/04 08:54:11;;;;;;;0.22;0.22;;;18.50;91.90;;;;;;5011002;28;20276;-71
2023/06/04 08:56:37;;;;;;;0.20;0.20;;;18.90;91.30;;;;;;5010439;28;20199;-71
2023/06/04 08:59:07;;;;;;;0.30;0.30;;;18.70;90.20;;;;;;4993269;28;20278;-70
2023/06/04 09:01:39;;;;;;;0.30;0.30;;;18.20;90.10;;;;;;5010752;28;20190;-70
2023/06/04 09:04:05;;;;;;;0.20;0.20;;;18.20;91.50;;;;;;5010833;28;20226;-71
2023/06/04 09:06:33;;;;;;;0.20;0.20;;;18.30;90.50;;;;;;5010640;28;20590;-71
2023/06/04 09:09:03;;;;;;;0.20;0.20;;;19.10;90.20;;;;;;5012298;28;20191;-71
2023/06/04 09:11:41;;;;;;;0.20;0.20;;;19.40;90.80;;;;;;5014551;28;20197;-71
2023/06/04 09:14:13;;;;;;;0.90;0.73;;;19.60;88.60;;;;;;5014692;28;20206;-71
2023/06/04 09:16:48;;;;;;;0.20;0.20;;;20.00;86.70;;;;;;5014335;28;20673;-71
2023/06/04 09:19:15;;;;;;;0.20;0.20;;;20.10;87.30;;;;;;5014025;28;20737;-71
2023/06/04 09:22:02;;;;;;;0.20;0.20;;;20.50;89.00;;;;;;5013923;28;20285;-71
2023/06/04 09:24:52;;;;;;;0.20;0.20;;;20.00;85.90;;;;;;4996298;28;20241;-71
2023/06/04 09:27:22;;;;;;;0.20;0.20;;;19.50;83.60;;;;;;5014122;28;20207;-71
2023/06/04 09:29:52;;;;;;;0.20;0.20;;;19.20;88.20;;;;;;5014162;28;20194;-70
2023/06/04 09:32:36;;;;;;;0.20;0.20;;;19.50;90.20;;;;;;4996486;28;20218;-70
2023/06/04 09:35:09;;;;;;;0.57;0.40;;;20.20;86.90;;;;;;4996417;28;20564;-70
2023/06/04 09:37:35;;;;;;;0.20;0.20;;;20.50;86.90;;;;;;4996396;28;20249;-71
2023/06/04 09:40:03;;;;;;;0.20;0.20;;;20.90;86.60;;;;;;5013820;28;20211;-71
2023/06/04 09:42:29;;;;;;;0.20;0.20;;;21.10;83.20;;;;;;5013618;28;20623;-70
2023/06/04 09:44:55;;;;;;;0.20;0.20;;;21.10;84.30;;;;;;5013853;28;20270;-71
2023/06/04 09:47:20;;;;;;;0.20;0.20;;;21.30;85.10;;;;;;5013658;28;20253;-71
2023/06/04 09:49:49;;;;;;;0.20;0.20;;;21.70;80.40;;;;;;5013614;28;20253;-70
2023/06/04 09:52:16;;;;;;;0.20;0.20;;;21.30;81.50;;;;;;5013513;28;20187;-70
2023/06/04 09:54:42;;;;;;;0.20;0.20;;;21.60;85.90;;;;;;5013320;28;20187;-71
2023/06/04 09:57:18;;;;;;;0.20;0.20;;;21.70;82.30;;;;;;4996355;28;20198;-72
2023/06/04 09:59:50;;;;;;;0.20;0.20;;;21.60;81.10;;;;;;4996019;28;20222;-71
2023/06/04 10:02:22;;;;;;;0.30;0.30;;;21.70;79.10;;;;;;5013391;28;20219;-71
2023/06/04 10:04:57;;;;;;;0.20;0.20;;;21.30;79.10;;;;;;5014004;28;20249;-70
2023/06/04 10:07:24;;;;;;;0.22;0.22;;;21.20;83.10;;;;;;5012939;28;20197;-71
2023/06/04 10:09:52;;;;;;;0.20;0.20;;;20.70;81.10;;;;;;5013467;28;20650;-71
2023/06/04 10:12:25;;;;;;;0.20;0.20;;;21.40;83.20;;;;;;4995522;28;20257;-72
2023/06/04 10:15:03;;;;;;;0.10;0.10;;;22.10;82.30;;;;;;5013090;28;20221;-71
2023/06/04 10:17:29;;;;;;;0.30;0.30;;;22.20;78.90;;;;;;5012975;28;20202;-71
2023/06/04 10:19:57;;;;;;;0.20;0.20;;;22.90;77.70;;;;;;5012346;28;20213;-71
2023/06/04 10:22:24;;;;;;;0.20;0.20;;;23.00;75.60;;;;;;4994878;28;20641;-71
2023/06/04 10:24:50;;;;;;;0.20;0.20;;;22.90;74.10;;;;;;5013240;28;20245;-72
2023/06/04 10:27:20;;;;;;;0.20;0.20;;;22.70;78.70;;;;;;5012996;28;20195;-72
2023/06/04 10:29:46;;;;;;;0.15;0.15;;;22.80;76.50;;;;;;5013147;28;20299;-71
2023/06/04 10:32:12;;;;;;;0.20;0.20;;;23.10;77.40;;;;;;5012844;28;20273;-68
2023/06/04 10:34:38;;;;;;;0.10;0.10;;;23.20;79.00;;;;;;4994983;28;20209;-69
2023/06/04 10:37:04;;;;;;;0.20;0.20;;;23.70;79.00;;;;;;4995131;28;20286;-69
2023/06/04 10:39:35;;;;;;;0.17;0.17;;;24.10;75.80;;;;;;5012517;28;20224;-69
2023/06/04 10:42:05;;;;;;;0.20;0.20;;;24.00;75.40;;;;;;5012691;28;20666;-68
2023/06/04 10:44:32;;;;;;;0.10;0.10;;;24.70;75.70;;;;;;5012360;28;20229;-68
2023/06/04 10:46:58;;;;;;;0.30;0.30;;;24.70;70.60;;;;;;5012692;28;20225;-67
2023/06/04 10:49:28;;;;;;;0.20;0.20;;;24.90;73.10;;;;;;5001752;28;20334;-67
2023/06/04 10:52:02;;;;;;;0.10;0.10;;;25.30;71.30;;;;;;4991758;28;20196;-69
2023/06/04 10:54:28;;;;;;;0.10;0.10;;;24.80;70.10;;;;;;4992755;28;20278;-70
2023/06/04 10:56:55;;;;;;;0.10;0.10;;;24.10;69.50;;;;;;4992906;28;20659;-68
2023/06/04 10:59:22;;;;;;;0.10;0.10;;;23.90;74.00;;;;;;4992663;28;20702;-69
2023/06/04 11:01:51;;;;;;;0.10;0.10;;;24.10;73.00;;;;;;4975162;28;20206;-69
2023/06/04 11:04:26;;;;;;;0.20;0.20;;;24.10;71.70;;;;;;4992316;28;20235;-68
2023/06/04 11:07:03;;;;;;;0.20;0.20;;;24.20;71.70;;;;;;4992930;28;20191;-69
2023/06/04 11:09:29;;;;;;;0.10;0.10;;;24.30;72.80;;;;;;4993544;28;20203;-69
2023/06/04 11:11:58;;;;;;;0.10;0.10;;;24.40;72.10;;;;;;5012318;28;20199;-69
2023/06/04 11:14:24;;;;;;;0.10;0.10;;;24.80;71.60;;;;;;4994191;28;20206;-67
2023/06/04 11:16:50;;;;;;;0.20;0.20;;;24.70;70.30;;;;;;5012055;28;20506;-68
2023/06/04 11:19:16;;;;;;;0.10;0.10;;;25.20;69.90;;;;;;5011982;28;20199;-67
2023/06/04 11:21:43;;;;;;;0.10;0.10;;;25.20;66.90;;;;;;5002209;28;20199;-69
2023/06/04 11:24:08;;;;;;;0.10;0.10;;;24.70;65.80;;;;;;4992293;28;20188;-67
2023/06/04 11:26:36;;;;;;;0.20;0.20;;;23.90;69.60;;;;;;4992421;28;20275;-68
2023/06/04 11:29:06;;;;;;;0.10;0.10;;;24.10;71.20;;;;;;4999678;28;20587;-67
2023/06/04 11:31:48;;;;;;;0.20;0.20;;;23.90;69.40;;;;;;4993458;28;20199;-68
2023/06/04 11:34:23;;;;;;;0.10;0.10;;;24.20;70.60;;;;;;5011798;28;20202;-68
2023/06/04 11:36:52;;;;;;;0.10;0.10;;;24.90;68.30;;;;;;5011713;28;20233;-69
2023/06/04 11:39:22;;;;;;;0.10;0.10;;;25.00;66.60;;;;;;5011560;28;20199;-72
2023/06/04 11:41:50;;;;;;;0.20;0.20;;;25.00;67.10;;;;;;5011718;28;20282;-69
2023/06/04 11:44:19;;;;;;;0.10;0.10;;;24.20;69.40;;;;;;4993848;28;20568;-68
2023/06/04 11:46:48;;;;;;;0.47;0.47;;;23.70;68.80;;;;;;5010731;28;20191;-70
2023/06/04 11:49:17;;;;;;;0.10;0.10;;;23.80;73.10;;;;;;5011289;28;20191;-69
2023/06/04 11:51:51;;;;;;;0.10;0.10;;;23.80;71.00;;;;;;4993621;28;20195;-70
2023/06/04 11:54:19;;;;;;;0.30;0.30;;;23.70;66.00;;;;;;4993609;28;20199;-69
2023/06/04 11:56:46;;;;;;;0.20;0.20;;;24.50;72.80;;;;;;4993514;28;20321;-70
2023/06/04 11:59:16;;;;;;;0.10;0.10;;;25.50;71.50;;;;;;4993593;28;20858;-69
2023/06/04 12:01:44;;;;;;;0.20;0.20;;;25.80;66.60;;;;;;5011421;28;20206;-68
2023/06/04 12:04:15;;;;;;;0.10;0.10;;;25.40;65.80;;;;;;5010947;28;20242;-68
2023/06/04 12:06:53;;;;;;;0.10;0.10;;;25.50;66.40;;;;;;5010913;28;20203;-69
2023/06/04 12:09:27;;;;;;;0.43;0.43;;;25.40;68.40;;;;;;5010949;28;20249;-68
2023/06/04 12:12:01;;;;;;;0.13;0.13;;;25.00;68.50;;;;;;4991620;28;20191;-68
2023/06/04 12:14:27;;;;;;;1.20;0.30;;;24.60;65.90;;;;;;4991176;28;20187;-68
2023/06/04 12:16:57;;;;;;;0.10;0.10;;;24.50;68.20;;;;;;4991550;28;20211;-70
2023/06/04 12:19:27;;;;;;;0.10;0.10;;;24.30;69.60;;;;;;5001541;28;20339;-68
2023/06/04 12:22:07;;;;;;;0.20;0.20;;;24.40;64.60;;;;;;4999924;28;20354;-68
2023/06/04 12:24:37;;;;;;;0.10;0.10;;;24.60;70.70;;;;;;4992079;28;20624;-68
2023/06/04 12:27:03;;;;;;;0.10;0.10;;;24.50;67.40;;;;;;5011002;28;20562;-68
2023/06/04 12:29:29;;;;;;;0.20;0.20;;;24.40;67.10;;;;;;5010732;28;20194;-68
2023/06/04 12:32:07;;;;;;;0.20;0.20;;;24.10;67.20;;;;;;4993302;28;20202;-68
2023/06/04 12:34:34;;;;;;;0.10;0.10;;;24.00;69.20;;;;;;5010518;28;20194;-68
2023/06/04 12:37:03;;;;;;;0.28;0.28;;;24.30;67.80;;;;;;5010796;28;20219;-70
2023/06/04 12:39:32;;;;;;;0.10;0.10;;;24.20;69.70;;;;;;5010633;28;20235;-69
2023/06/04 12:41:57;;;;;;;0.10;0.10;;;24.00;67.30;;;;;;5009498;28;20337;-69
2023/06/04 12:44:23;;;;;;;0.30;0.20;;;24.10;66.80;;;;;;5009548;28;20266;-69
2023/06/04 12:46:50;;;;;;;0.20;0.20;;;24.00;69.00;;;;;;4993124;28;20680;-69
2023/06/04 12:49:16;;;;;;;0.10;0.10;;;24.50;67.20;;;;;;5010670;28;20195;-69
2023/06/04 12:51:41;;;;;;;0.10;0.10;;;24.90;68.20;;;;;;4992759;28;20221;-71